Time;durP1;ratioP1;P1;durP2;ratioP2;P2;SDS_P1;SDS_P2;PMS_P1;PMS_P2;Temp;Humidity;BMP_temperature;BMP_pressure;BME280_temperature;BME280_humidity;BME280_pressure;Samples;Min_cycle;Max_cycle;Signal;HPM_P1;HPM_P2
2022/08/19 00:00:18;;;;;;;;;19.00;17.33;;;;;21.05;88.74;100829.47;5032756;28;45888;-85
2022/08/19 00:02:43;;;;;;;;;18.67;17.00;;;;;21.01;88.37;100827.78;5032239;28;46721;-85
2022/08/19 00:05:11;;;;;;;;;17.00;17.00;;;;;21.02;88.03;100830.44;5034131;28;45246;-85
2022/08/19 00:07:37;;;;;;;;;17.00;16.00;;;;;21.02;88.12;100829.56;5033224;28;45888;-85
2022/08/19 00:10:05;;;;;;;;;15.00;15.00;;;;;21.02;88.37;100829.56;5031884;28;45459;-85
2022/08/19 00:12:30;;;;;;;;;16.67;15.33;;;;;21.00;88.07;100826.00;5031929;28;45421;-85
2022/08/19 00:14:56;;;;;;;;;18.00;16.67;;;;;21.01;88.12;100827.78;5031682;28;45424;-85
2022/08/19 00:17:23;;;;;;;;;18.00;17.33;;;;;20.94;88.05;100818.94;5031852;28;44863;-85
2022/08/19 00:19:48;;;;;;;;;16.67;16.67;;;;;20.96;89.10;100836.88;5032135;28;44936;-85
2022/08/19 00:22:14;;;;;;;;;18.00;17.00;;;;;20.89;88.47;100835.31;5032277;28;45501;-85
2022/08/19 00:24:43;;;;;;;;;18.33;18.33;;;;;20.86;89.00;100823.69;5048303;28;45513;-85
2022/08/19 00:27:11;;;;;;;;;19.33;19.33;;;;;20.89;88.99;100835.31;5049247;28;45499;-86
2022/08/19 00:29:37;;;;;;;;;19.00;16.00;;;;;20.89;89.30;100838.00;5032998;28;45351;-85
2022/08/19 00:32:04;;;;;;;;;15.00;14.67;;;;;20.86;88.49;100831.78;5032812;28;46085;-85
2022/08/19 00:34:29;;;;;;;;;15.67;15.33;;;;;20.87;88.54;100837.16;5032269;28;45408;-85
2022/08/19 00:36:56;;;;;;;;;15.00;15.00;;;;;20.87;88.58;100834.47;5031797;28;45366;-85
2022/08/19 00:39:22;;;;;;;;;16.00;16.00;;;;;20.87;88.25;100842.56;5031960;28;45497;-85
2022/08/19 00:41:49;;;;;;;;;17.33;17.33;;;;;20.86;88.76;100835.38;5032362;28;45119;-85
2022/08/19 00:44:21;;;;;;;;;14.33;14.33;;;;;20.85;88.90;100832.72;5033426;28;44686;-85
2022/08/19 00:46:50;;;;;;;;;15.67;15.00;;;;;20.90;88.58;100842.47;5032713;28;45375;-85
2022/08/19 00:49:22;;;;;;;;;18.67;17.67;;;;;20.89;88.35;100840.72;5031738;28;45589;-85
2022/08/19 00:51:57;;;;;;;;;19.33;17.33;;;;;20.90;88.31;100839.75;5032989;28;45986;-85
2022/08/19 00:54:24;;;;;;;;;15.00;15.00;;;;;20.88;88.09;100841.63;5032063;28;45360;-85
2022/08/19 00:56:50;;;;;;;;;16.33;16.33;;;;;20.90;88.48;100838.88;5032381;28;45350;-85
2022/08/19 00:59:18;;;;;;;;;14.67;14.67;;;;;20.91;88.06;100838.84;5032333;28;45291;-85
2022/08/19 01:01:44;;;;;;;;;16.00;16.00;;;;;20.88;88.15;100841.63;5031702;28;47075;-85
2022/08/19 01:04:09;;;;;;;;;16.67;16.33;;;;;20.90;88.56;100837.06;5026054;28;44958;-85
2022/08/19 01:06:37;;;;;;;;;14.33;14.33;;;;;20.91;88.34;100836.16;5027500;28;45419;-85
2022/08/19 01:09:03;;;;;;;;;18.00;15.67;;;;;20.88;88.37;100838.91;4994406;28;45390;-85
2022/08/19 01:11:32;;;;;;;;;14.67;14.67;;;;;20.87;88.51;100834.47;4993875;28;45173;-85
2022/08/19 01:13:58;;;;;;;;;18.00;17.00;;;;;20.86;89.08;100827.25;5011571;28;45489;-85
2022/08/19 01:16:26;;;;;;;;;15.00;14.67;;;;;20.90;88.81;100831.66;4996394;28;44791;-85
2022/08/19 01:18:53;;;;;;;;;17.00;16.33;;;;;20.87;88.96;100834.47;5013633;28;45953;-85
2022/08/19 01:21:53;;;;;;;;;17.00;17.00;;;;;20.83;89.07;100824.66;4995433;28;47698;-85
2022/08/19 01:24:18;;;;;;;;;16.33;16.00;;;;;20.81;88.84;100822.94;4950771;28;45496;-85
2022/08/19 01:26:45;;;;;;;;;14.00;14.00;;;;;20.80;89.54;100830.13;4953836;28;45600;-85
2022/08/19 01:29:11;;;;;;;;;16.00;16.00;;;;;20.72;89.14;100829.44;4952120;28;45408;-85
2022/08/19 01:31:39;;;;;;;;;14.67;14.67;;;;;20.73;89.56;100837.53;4951554;28;46179;-85
2022/08/19 01:34:05;;;;;;;;;14.67;14.67;;;;;20.77;89.34;100854.56;4954671;28;45358;-85
2022/08/19 01:36:38;;;;;;;;;14.00;14.00;;;;;20.75;89.44;100857.28;4954124;28;44776;-85
2022/08/19 01:39:08;;;;;;;;;14.33;13.67;;;;;20.74;89.38;100857.31;4970710;28;45481;-85
2022/08/19 01:41:34;;;;;;;;;15.00;15.00;;;;;20.63;90.16;100835.13;4970817;28;45515;-85
2022/08/19 01:44:03;;;;;;;;;13.00;13.00;;;;;20.68;89.47;100850.28;4969980;28;45381;-85
2022/08/19 01:46:28;;;;;;;;;17.00;14.67;;;;;20.70;88.89;100848.44;4953019;28;44814;-85
2022/08/19 01:48:54;;;;;;;;;12.00;12.00;;;;;20.69;89.52;100852.03;4970126;28;44945;-85
2022/08/19 01:51:19;;;;;;;;;15.33;15.00;;;;;20.69;90.15;100851.16;4953465;28;45417;-85
2022/08/19 01:53:48;;;;;;;;;19.00;17.33;;;;;20.68;89.88;100852.06;4952135;28;45819;-85
2022/08/19 01:56:14;;;;;;;;;16.00;15.00;;;;;20.61;90.22;100847.78;4953965;28;45443;-84
2022/08/19 01:58:48;;;;;;;;;16.00;14.67;;;;;20.54;89.91;100847.00;4971072;28;45548;-85
2022/08/19 02:01:13;;;;;;;;;13.00;13.00;;;;;20.39;89.93;100824.84;5001089;28;45374;-84
2022/08/19 02:03:39;;;;;;;;;15.33;14.33;;;;;20.52;90.58;100852.47;5009332;28;45479;-85
2022/08/19 02:06:05;;;;;;;;;14.00;13.00;;;;;20.50;90.66;100858.81;5010714;28;45426;-84
2022/08/19 02:08:35;;;;;;;;;16.00;16.00;;;;;20.47;91.28;100857.06;5011489;28;45425;-85
2022/08/19 02:11:00;;;;;;;;;13.00;13.00;;;;;20.43;92.29;100852.69;5010532;28;45372;-85
2022/08/19 02:13:26;;;;;;;;;16.67;14.33;;;;;20.40;92.81;100850.06;5008995;28;45410;-84
2022/08/19 02:15:52;;;;;;;;;14.33;14.33;;;;;20.41;92.39;100850.94;5011162;28;45233;-85
2022/08/19 02:18:17;;;;;;;;;14.00;14.00;;;;;20.32;92.27;100836.75;5012677;28;45276;-85
2022/08/19 02:20:44;;;;;;;;;17.00;15.33;;;;;20.40;93.48;100844.66;5013488;28;45609;-85
2022/08/19 02:23:11;;;;;;;;;17.00;16.00;;;;;20.43;92.86;100855.38;5011218;28;45960;-85
2022/08/19 02:25:37;;;;;;;;;18.67;18.33;;;;;20.41;93.26;100851.81;5010353;28;44913;-85
2022/08/19 02:28:04;;;;;;;;;16.33;14.67;;;;;20.49;93.62;100855.22;5009390;28;45428;-85
2022/08/19 02:30:30;;;;;;;;;16.00;13.00;;;;;20.54;93.24;100844.28;5010411;28;46826;-85
2022/08/19 02:32:56;;;;;;;;;16.33;16.00;;;;;20.56;92.69;100850.53;5019125;28;45484;-85
2022/08/19 02:35:21;;;;;;;;;14.33;14.33;;;;;20.54;92.77;100842.50;5029744;28;45279;-85
2022/08/19 02:40:34;;;;;;;;;14.33;13.33;;;;;20.57;93.07;100858.63;5030711;28;45850;-85
2022/08/19 02:43:00;;;;;;;;;13.67;13.67;;;;;20.54;93.19;100853.31;5034039;28;45555;-85
2022/08/19 02:45:26;;;;;;;;;19.00;16.00;;;;;20.60;93.35;100857.66;5034798;28;44840;-84
2022/08/19 02:47:53;;;;;;;;;17.00;15.00;;;;;20.54;93.14;100844.28;5017649;28;45601;-85
2022/08/19 02:50:18;;;;;;;;;16.00;16.00;;;;;20.53;92.62;100846.09;5017443;28;47023;-86
2022/08/19 02:52:44;;;;;;;;;13.67;13.33;;;;;20.49;93.77;100846.25;5016708;28;45328;-85
2022/08/19 02:55:10;;;;;;;;;16.00;14.33;;;;;20.44;94.08;100848.16;5013427;28;44825;-85
2022/08/19 02:57:35;;;;;;;;;13.67;13.67;;;;;20.44;94.14;100858.97;5014015;28;45991;-85
2022/08/19 03:00:05;;;;;;;;;11.33;11.33;;;;;20.40;94.19;100855.47;5014036;28;47028;-85
2022/08/19 03:02:30;;;;;;;;;16.00;14.33;;;;;20.32;94.90;100847.56;5013463;28;45343;-85
2022/08/19 03:04:56;;;;;;;;;15.67;15.33;;;;;20.32;95.33;100849.34;5013692;28;45543;-85
2022/08/19 03:07:21;;;;;;;;;16.00;14.67;;;;;20.35;95.45;100857.38;5014218;28;45321;-85
2022/08/19 03:09:47;;;;;;;;;20.33;19.67;;;;;20.34;95.46;100852.88;5014237;28;47138;-85
2022/08/19 03:12:12;;;;;;;;;14.67;13.00;;;;;20.36;95.77;100857.34;5015228;28;45528;-84
2022/08/19 03:14:38;;;;;;;;;17.33;17.33;;;;;20.40;95.55;100855.47;5016131;28;45157;-85
2022/08/19 03:17:05;;;;;;;;;15.00;15.00;;;;;20.47;96.05;100864.31;5015750;28;45408;-85
2022/08/19 03:19:31;;;;;;;;;15.67;13.33;;;;;20.44;96.95;100864.38;5015211;28;46947;-85
2022/08/19 03:21:57;;;;;;;;;17.00;15.00;;;;;20.50;96.30;100857.00;5016558;28;45301;-85
2022/08/19 03:25:02;;;;;;;;;17.00;13.33;;;;;20.51;95.54;100855.19;4998292;28;45311;-85
2022/08/19 03:27:27;;;;;;;;;16.33;16.33;;;;;20.45;95.86;100842.72;5014334;28;45238;-85
2022/08/19 03:29:52;;;;;;;;;14.00;13.00;;;;;20.51;96.26;100847.97;5014688;28;45147;-84
2022/08/19 03:32:18;;;;;;;;;15.33;15.33;;;;;20.42;95.88;100831.09;5016090;28;45156;-85
2022/08/19 03:34:44;;;;;;;;;18.00;16.00;;;;;20.53;95.68;100845.22;5018846;28;44802;-84
2022/08/19 03:37:14;;;;;;;;;17.00;14.00;;;;;20.63;95.63;100848.63;5034798;28;45246;-84
2022/08/19 03:39:41;;;;;;;;;18.67;17.00;;;;;20.63;95.25;100845.94;5016670;28;47761;-85
2022/08/19 03:42:09;;;;;;;;;23.00;20.00;;;;;20.66;95.29;100849.41;5049152;28;45332;-86
2022/08/19 03:44:37;;;;;;;;;16.00;13.00;;;;;20.67;95.39;100853.03;5034477;28;45399;-85
2022/08/19 03:47:06;;;;;;;;;19.00;19.00;;;;;20.65;95.46;100844.94;5017505;28;44824;-86
2022/08/19 03:49:35;;;;;;;;;21.00;19.00;;;;;20.63;95.33;100840.53;5017085;28;47624;-85
2022/08/19 03:52:01;;;;;;;;;14.33;14.33;;;;;20.66;95.47;100852.09;5014943;28;44855;-86
2022/08/19 03:54:27;;;;;;;;;15.00;15.00;;;;;20.69;95.01;100860.16;5015364;28;45365;-85
2022/08/19 03:56:55;;;;;;;;;17.00;15.67;;;;;20.67;95.05;100850.31;5016942;28;44911;-85
2022/08/19 03:59:27;;;;;;;;;15.33;15.33;;;;;20.69;95.23;100857.44;5032520;28;46694;-86
2022/08/19 04:01:58;;;;;;;;;12.67;12.33;;;;;20.67;95.29;100850.31;5015028;28;45482;-86
2022/08/19 04:04:23;;;;;;;;;15.33;15.33;;;;;20.70;94.76;100847.53;5033563;28;44994;-85
2022/08/19 04:06:56;;;;;;;;;14.33;14.00;;;;;20.74;94.51;100849.22;5014711;28;44858;-86
2022/08/19 04:10:01;;;;;;;;;14.67;12.00;;;;;20.75;93.88;100848.31;5014549;28;46801;-85
2022/08/19 04:12:46;;;;;;;;;14.00;12.67;;;;;20.73;93.89;100847.47;5032921;28;44761;-84
2022/08/19 04:19:14;;;;;;;;;13.00;13.00;;;;;20.65;94.14;100844.94;5035412;28;45310;-85
2022/08/19 04:21:47;;;;;;;;;14.00;12.00;;;;;20.63;94.09;100840.53;5034547;28;45403;-86
2022/08/19 04:24:13;;;;;;;;;13.33;12.33;;;;;20.62;94.01;100838.72;5014121;28;44851;-86
2022/08/19 04:26:40;;;;;;;;;13.67;12.00;;;;;20.62;94.03;100853.13;5030513;28;45355;-86
2022/08/19 04:29:09;;;;;;;;;13.67;11.67;;;;;20.65;94.28;100846.78;5029872;28;45378;-86
2022/08/19 04:31:37;;;;;;;;;8.33;8.00;;;;;20.68;94.01;100846.69;5028921;28;47759;-85
2022/08/19 04:34:12;;;;;;;;;15.33;11.67;;;;;20.71;94.28;100855.59;5026101;28;45481;-86
2022/08/19 04:36:40;;;;;;;;;14.33;12.00;;;;;20.74;94.05;100851.91;5026319;28;45363;-86
2022/08/19 04:39:08;;;;;;;;;9.33;8.00;;;;;20.67;94.61;100839.50;4995272;28;45400;-86
2022/08/19 04:44:19;;;;;;;;;10.67;10.33;;;;;20.75;93.57;100856.41;4994875;28;44747;-85
2022/08/19 04:46:49;;;;;;;;;10.67;9.00;;;;;20.73;94.14;100853.75;4993099;28;44829;-86
2022/08/19 04:49:16;;;;;;;;;9.00;9.00;;;;;20.76;93.98;100863.56;4994493;28;45435;-85
2022/08/19 04:51:43;;;;;;;;;10.00;10.00;;;;;20.80;93.89;100862.56;4992520;28;48308;-85
2022/08/19 04:54:09;;;;;;;;;11.33;9.33;;;;;20.77;94.26;100865.38;4992268;28;44747;-85
2022/08/19 04:56:35;;;;;;;;;9.00;9.00;;;;;20.82;93.55;100876.94;5026355;28;45382;-85
2022/08/19 04:59:04;;;;;;;;;9.00;8.00;;;;;20.77;93.79;100876.19;4993386;28;44847;-85
2022/08/19 05:01:32;;;;;;;;;7.00;7.00;;;;;20.86;93.27;100881.31;5026183;28;47052;-85
2022/08/19 05:04:00;;;;;;;;;8.00;8.00;;;;;20.84;93.10;100883.19;4991817;28;45452;-85
2022/08/19 05:06:26;;;;;;;;;8.33;8.33;;;;;20.81;93.23;100869.75;4994023;28;45351;-85
2022/08/19 05:08:52;;;;;;;;;11.00;9.67;;;;;20.84;93.47;100875.06;4993790;28;45337;-85
2022/08/19 05:11:21;;;;;;;;;11.67;9.67;;;;;20.86;93.23;100875.03;5025148;28;46705;-85
2022/08/19 05:13:48;;;;;;;;;10.00;10.00;;;;;20.87;93.18;100879.53;5024801;28;45742;-85
2022/08/19 05:16:19;;;;;;;;;9.00;9.00;;;;;20.90;93.16;100883.03;4991370;28;45382;-85
2022/08/19 05:24:15;;;;;;;;;9.00;9.00;;;;;20.90;92.58;100888.44;4994540;28;44886;-86
2022/08/19 05:26:44;;;;;;;;;10.00;10.00;;;;;20.85;92.78;100863.34;4991995;28;45421;-85
2022/08/19 05:29:10;;;;;;;;;9.00;9.00;;;;;20.92;93.14;100883.00;4990497;28;45422;-86
2022/08/19 05:31:36;;;;;;;;;6.33;6.33;;;;;20.97;93.03;100889.19;5024060;28;47147;-86
2022/08/19 05:41:24;;;;;;;;;8.33;8.33;;;;;21.03;92.82;100890.84;4993150;28;45372;-85
2022/08/19 05:43:52;;;;;;;;;6.67;6.67;;;;;21.07;92.62;100895.22;5023969;28;45440;-85
2022/08/19 05:46:19;;;;;;;;;10.67;8.00;;;;;21.05;93.11;100900.66;4991854;28;45185;-85
2022/08/19 05:48:46;;;;;;;;;8.33;8.33;;;;;21.04;93.19;100895.28;4991413;28;45515;-85
2022/08/19 05:51:12;;;;;;;;;9.00;7.67;;;;;20.96;93.22;100882.84;4990095;28;45334;-85
2022/08/19 05:53:37;;;;;;;;;9.67;8.67;;;;;21.06;92.93;100893.44;5023948;28;47709;-85
2022/08/19 05:56:09;;;;;;;;;8.00;7.33;;;;;21.01;93.86;100895.41;5007589;28;45701;-84
2022/08/19 05:58:36;;;;;;;;;8.00;8.00;;;;;21.01;93.89;100896.28;5024288;28;45371;-84
2022/08/19 06:01:05;;;;;;;;;6.33;6.33;;;;;21.06;94.26;100904.25;4990324;28;45377;-84
2022/08/19 06:03:33;;;;;;;;;7.67;7.67;;;;;21.04;94.09;100892.59;4991027;28;47222;-86
2022/08/19 06:09:22;;;;;;;;;5.67;5.67;;;;;21.06;95.86;100899.72;4992934;28;45683;-86
2022/08/19 06:11:53;;;;;;;;;7.33;6.33;;;;;21.11;95.35;100902.34;4993095;28;44721;-86
2022/08/19 06:14:22;;;;;;;;;7.67;6.00;;;;;21.20;95.70;100912.88;4992467;28;45807;-86
2022/08/19 06:16:48;;;;;;;;;6.67;5.67;;;;;21.15;95.04;100898.63;4990081;28;45398;-86
2022/08/19 06:19:20;;;;;;;;;5.00;5.00;;;;;21.16;95.01;100903.94;5024705;28;45307;-84
2022/08/19 06:21:51;;;;;;;;;5.00;5.00;;;;;21.13;95.62;100911.28;4992688;28;44798;-85
2022/08/19 06:24:22;;;;;;;;;6.50;6.50;;;;;21.15;95.79;100912.13;5019186;28;47141;-85
2022/08/19 06:26:50;;;;;;;;;5.33;5.33;;;;;21.21;95.54;100914.66;5026742;28;45350;-84
2022/08/19 06:29:18;;;;;;;;;5.00;5.00;;;;;21.24;95.77;100919.97;5027296;28;45388;-85
2022/08/19 06:31:49;;;;;;;;;7.00;6.00;;;;;21.24;96.33;100913.69;5026741;28;45408;-84
2022/08/19 06:34:15;;;;;;;;;6.00;5.00;;;;;21.16;96.25;100905.78;5009843;28;47797;-84
2022/08/19 06:36:44;;;;;;;;;6.33;5.67;;;;;21.26;97.25;100928.94;5026644;28;45331;-85
2022/08/19 06:39:17;;;;;;;;;4.75;3.75;;;;;21.10;96.66;100906.81;5026370;28;44790;-85
2022/08/19 06:41:46;;;;;;;;;4.00;4.00;;;;;21.11;97.67;100908.63;5026417;28;44908;-85
2022/08/19 06:44:18;;;;;;;;;4.75;4.75;;;;;21.12;98.30;100914.91;5026727;28;45710;-85
2022/08/19 06:46:48;;;;;;;;;6.00;5.00;;;;;21.06;98.84;100912.38;5026627;28;45336;-85
2022/08/19 06:49:15;;;;;;;;;3.75;3.75;;;;;21.04;98.52;100916.94;5026776;28;44896;-85
2022/08/19 06:51:49;;;;;;;;;4.00;3.00;;;;;20.97;99.39;100892.75;5012588;28;44804;-85
2022/08/19 06:54:16;;;;;;;;;6.00;5.00;;;;;21.20;98.51;100909.28;5009699;28;46700;-85
2022/08/19 06:56:43;;;;;;;;;6.33;3.67;;;;;21.42;98.33;100923.13;5008835;28;45335;-85
2022/08/19 06:59:16;;;;;;;;;4.00;4.00;;;;;21.38;97.33;100903.38;5008639;28;45490;-85
2022/08/19 07:01:49;;;;;;;;;4.00;4.00;;;;;21.37;96.86;100916.03;5008860;28;45347;-84
2022/08/19 07:05:04;;;;;;;;;5.67;5.67;;;;;21.43;97.03;100938.44;5010404;28;45407;-85
2022/08/19 07:07:36;;;;;;;;;2.33;2.00;;;;;21.41;97.08;100942.97;5008924;28;45601;-83
2022/08/19 07:10:04;;;;;;;;;4.67;4.00;;;;;21.48;96.76;100945.50;5008882;28;45334;-86
2022/08/19 07:12:51;;;;;;;;;;;;;;;;;;;;;
2022/08/19 07:15:30;;;;;;;;;2.67;2.67;;;;;21.52;96.55;100917.44;5004659;28;74821;-86
2022/08/19 07:18:34;;;;;;;;;3.00;3.00;;;;;21.76;96.28;100940.19;5006258;28;45240;-86
2022/08/19 07:21:07;;;;;;;;;3.33;3.33;;;;;21.73;96.38;100929.47;4952212;28;45385;-86
2022/08/19 07:23:38;;;;;;;;;4.67;3.00;;;;;21.56;95.46;100905.56;4951479;28;45362;-86
2022/08/19 07:26:24;;;;;;;;;2.33;2.33;;;;;21.65;96.37;100926.06;4935112;28;46254;-86
2022/08/19 07:29:41;;;;;;;;;4.00;4.00;;;;;21.49;95.93;100897.69;4970099;28;44873;-86
2022/08/19 07:32:34;;;;;;;;;2.67;2.67;;;;;21.67;95.88;100923.31;4942056;28;46145;-86
2022/08/19 07:35:29;;;;;;;;;;;;;;;;;;;;;
2022/08/19 07:41:47;;;;;;;;;2.00;1.67;;;;;21.65;96.27;100936.03;4970196;28;45463;-86
2022/08/19 07:44:15;;;;;;;;;3.00;3.00;;;;;21.76;96.21;100933.91;4972256;28;45368;-86
2022/08/19 07:46:49;;;;;;;;;3.00;3.00;;;;;21.79;95.52;100936.50;4972714;28;45410;-86
2022/08/19 07:49:19;;;;;;;;;2.00;2.00;;;;;21.82;96.34;100933.72;4972226;28;45507;-85
2022/08/19 07:51:53;;;;;;;;;3.00;2.00;;;;;21.91;96.13;100927.13;4973807;28;45322;-86
2022/08/19 07:54:39;;;;;;;;;2.00;2.00;;;;;21.93;95.54;100920.72;4972964;28;44775;-86
2022/08/19 07:57:31;;;;;;;;;3.00;1.00;;;;;22.03;94.96;100901.50;4980165;28;45480;-86
2022/08/19 08:00:12;;;;;;;;;2.67;1.33;;;;;22.46;94.39;100938.09;5012180;28;45735;-85
2022/08/19 08:03:09;;;;;;;;;;;;;;;;;;;;;
2022/08/19 08:09:26;;;;;;;;;3.00;3.00;;;;;22.46;91.92;100919.13;5013437;28;45452;-83
2022/08/19 08:12:40;;;;;;;;;4.00;4.00;;;;;22.60;92.04;100927.69;5022540;28;46819;-84
2022/08/19 08:15:20;;;;;;;;;3.00;3.00;;;;;22.72;91.48;100942.69;5011209;28;44897;-84
2022/08/19 08:17:49;;;;;;;;;3.00;3.00;;;;;22.66;91.16;100934.75;5027582;28;44950;-84
2022/08/19 08:20:15;;;;;;;;;4.00;3.00;;;;;22.69;91.45;100938.25;5009747;28;45018;-84
2022/08/19 08:25:35;;;;;;;;;3.00;2.00;;;;;22.70;90.90;100944.56;5011215;28;45480;-85
2022/08/19 08:28:01;;;;;;;;;1.00;1.00;;;;;22.77;90.27;100940.72;5010772;28;44903;-84
2022/08/19 08:30:28;;;;;;;;;5.00;4.00;;;;;22.77;90.20;100940.72;5010909;28;44837;-86
2022/08/19 08:32:57;;;;;;;;;3.33;2.00;;;;;22.83;89.58;100940.50;5012313;28;46981;-85
2022/08/19 08:36:03;;;;;;;;;2.00;2.00;;;;;23.08;89.80;100950.53;5013837;28;45367;-86
2022/08/19 08:38:31;;;;;;;;;2.33;2.33;;;;;23.08;88.92;100932.44;5031489;28;45403;-85
2022/08/19 08:41:06;;;;;;;;;2.67;2.67;;;;;23.04;88.84;100913.63;5013466;28;45368;-85
2022/08/19 08:43:43;;;;;;;;;2.00;2.00;;;;;23.27;88.19;100946.25;5009985;28;46155;-87
2022/08/19 08:46:26;;;;;;;;;2.00;2.00;;;;;23.26;87.36;100930.91;5027909;28;44863;-86
2022/08/19 08:49:01;;;;;;;;;3.33;3.33;;;;;23.49;87.03;100961.75;5011591;28;45411;-87
2022/08/19 08:54:30;;;;;;;;;3.00;3.00;;;;;23.34;86.22;100920.66;4970487;28;45397;-86
2022/08/19 08:56:57;;;;;;;;;3.00;3.00;;;;;23.60;85.21;100970.41;4969043;28;45214;-87
2022/08/19 09:02:49;;;;;;;;;4.00;4.00;;;;;23.66;85.21;100953.91;4967084;28;44915;-85
2022/08/19 09:05:15;;;;;;;;;3.00;3.00;;;;;23.67;84.69;100933.03;4968347;28;45586;-86
2022/08/19 09:08:05;;;;;;;;;6.67;4.33;;;;;24.02;83.96;100950.78;4968240;28;45488;-86
2022/08/19 09:10:57;;;;;;;;;3.00;3.00;;;;;24.23;82.78;100949.03;4951889;28;44783;-87
2022/08/19 09:13:57;;;;;;;;;2.00;2.00;;;;;24.27;82.19;100909.03;4968564;28;45507;-85
2022/08/19 09:16:26;;;;;;;;;2.67;2.67;;;;;24.54;79.17;100926.06;4968341;28;46449;-87
2022/08/19 09:18:57;;;;;;;;;5.00;3.00;;;;;24.49;80.29;100926.25;4966186;28;45453;-86
2022/08/19 09:21:32;;;;;;;;;4.00;4.00;;;;;24.53;80.31;100925.19;4931249;28;45430;-85
2022/08/19 09:24:04;;;;;;;;;2.67;2.67;;;;;24.83;79.84;100951.19;4950138;28;44851;-85
2022/08/19 09:26:32;;;;;;;;;3.67;2.00;;;;;24.75;78.99;100918.88;4932665;28;45441;-86
2022/08/19 09:29:25;;;;;;;;;;;;;;;;;;;;;
2022/08/19 09:31:53;;;;;;;;;4.00;4.00;;;;;24.83;78.30;100905.84;4985292;28;67844;-86
2022/08/19 09:34:25;;;;;;;;;2.67;2.67;;;;;25.17;77.29;100926.16;5008070;28;45459;-86
2022/08/19 09:36:52;;;;;;;;;1.00;1.00;;;;;25.23;76.89;100920.47;5007014;28;45427;-87
2022/08/19 09:39:25;;;;;;;;;3.00;3.00;;;;;25.45;76.09;100938.56;5007925;28;44791;-86
2022/08/19 09:42:00;;;;;;;;;3.00;3.00;;;;;25.33;75.62;100905.50;5007608;28;45432;-86
2022/08/19 09:44:26;;;;;;;;;3.33;0.67;;;;;25.63;75.25;100931.38;4993374;28;45612;-85
2022/08/19 09:47:00;;;;;;;;;2.00;2.00;;;;;25.65;74.23;100904.97;5003997;28;47489;-85
2022/08/19 09:49:25;;;;;;;;;1.33;1.33;;;;;25.90;73.01;100942.91;4980324;28;45295;-86
2022/08/19 09:51:55;;;;;;;;;1.33;1.33;;;;;25.72;73.21;100926.41;4991537;28;44852;-85
2022/08/19 09:54:25;;;;;;;;;1.67;1.67;;;;;25.74;73.27;100940.84;5024492;28;45340;-86
2022/08/19 09:57:04;;;;;;;;;1.00;1.00;;;;;25.86;73.79;100946.69;5009131;28;45452;-85
2022/08/19 09:59:33;;;;;;;;;2.00;2.00;;;;;25.77;72.96;100914.41;4991203;28;44961;-87
2022/08/19 10:02:01;;;;;;;;;2.33;2.33;;;;;25.89;72.64;100902.94;4990533;28;45705;-86
2022/08/19 10:07:52;;;;;;;;;1.00;1.00;;;;;26.27;70.90;100916.59;4986986;28;45380;-86
2022/08/19 10:10:31;;;;;;;;;;;;;;;;;;;;;
2022/08/19 10:13:25;;;;;;;;;1.67;1.67;;;;;26.62;70.78;100941.28;4991767;28;69681;-85
2022/08/19 10:15:56;;;;;;;;;2.33;2.33;;;;;26.44;69.10;100913.94;4993029;28;45555;-86
2022/08/19 10:18:30;;;;;;;;;1.67;1.67;;;;;26.62;69.83;100925.81;4987120;28;45516;-86
2022/08/19 10:21:15;;;;;;;;;2.67;2.33;;;;;26.58;69.33;100913.28;4971997;28;45373;-86
2022/08/19 10:23:56;;;;;;;;;2.00;2.00;;;;;26.62;70.22;100897.63;4976239;28;45423;-86
2022/08/19 10:26:49;;;;;;;;;2.00;2.00;;;;;27.18;69.13;100933.91;4993454;28;45443;-85
2022/08/19 10:29:36;;;;;;;;;2.33;1.00;;;;;27.35;67.51;100892.97;4984260;28;46308;-86
2022/08/19 10:32:11;;;;;;;;;0.33;0.33;;;;;27.56;66.09;100901.84;5004806;28;45567;-86
2022/08/19 10:34:40;;;;;;;;;1.00;1.00;;;;;27.70;65.18;100915.63;5022960;28;45345;-86
2022/08/19 10:37:06;;;;;;;;;1.33;1.33;;;;;27.77;64.47;100918.91;5010326;28;45059;-86
2022/08/19 10:39:35;;;;;;;;;2.00;2.00;;;;;27.48;64.46;100913.19;5026690;28;46698;-85
2022/08/19 10:42:07;;;;;;;;;1.33;1.33;;;;;27.44;65.13;100902.50;5010088;28;45441;-86
2022/08/19 10:44:42;;;;;;;;;1.33;1.33;;;;;27.51;65.08;100903.94;5012192;28;45363;-85
2022/08/19 10:47:11;;;;;;;;;1.00;1.00;;;;;27.57;64.16;100917.28;5010626;28;44900;-86
2022/08/19 11:00:13;;;;;;;;;;;;;;;;;;;;;
2022/08/19 11:02:41;;;;;;;;;0.67;0.67;;;;;26.94;64.43;100888.72;4986056;28;75164;-88
2022/08/19 11:05:10;;;;;;;;;2.67;2.67;;;;;26.84;65.05;100892.84;4955464;28;45430;-88
2022/08/19 11:08:02;;;;;;;;;0.00;0.00;;;;;26.88;65.78;100920.88;4975076;28;45379;-88
2022/08/19 11:10:30;;;;;;;;;0.67;0.67;;;;;26.36;65.40;100886.19;4991707;28;45375;-88
2022/08/19 11:13:00;;;;;;;;;1.33;1.33;;;;;26.30;66.20;100920.06;4973152;28;47016;-87
2022/08/19 11:18:55;;;;;;;;;3.33;3.33;;;;;25.79;68.07;100897.03;4910979;28;45527;-85
2022/08/19 11:21:29;;;;;;;;;2.00;2.00;;;;;25.62;68.58;100881.50;4909672;29;45543;-86
2022/08/19 11:23:57;;;;;;;;;2.00;2.00;;;;;25.67;69.28;100911.22;4919091;28;45426;-86
2022/08/19 11:26:24;;;;;;;;;3.33;1.67;;;;;25.70;69.42;100922.00;4913121;28;45337;-84
2022/08/19 11:29:11;;;;;;;;;4.33;4.00;;;;;25.56;69.52;100906.28;4896483;29;44776;-87
2022/08/19 11:31:44;;;;;;;;;2.00;2.00;;;;;25.41;69.19;100885.19;4910862;29;45067;-87
2022/08/19 11:34:35;;;;;;;;;0.33;0.33;;;;;25.39;69.87;100892.53;4890162;28;47301;-87
2022/08/19 11:37:13;;;;;;;;;1.33;1.33;;;;;25.24;70.45;100875.06;4908474;28;45505;-85
2022/08/19 11:40:32;;;;;;;;;2.00;2.00;;;;;25.33;70.43;100910.94;4926782;28;45020;-86
2022/08/19 11:42:58;;;;;;;;;1.75;1.75;;;;;25.15;70.50;100912.59;4913016;28;45405;-87
2022/08/19 11:45:29;;;;;;;;;3.00;3.00;;;;;24.90;70.85;100896.44;4911581;28;47074;-86
2022/08/19 11:47:56;;;;;;;;;2.00;2.00;;;;;24.89;71.04;100911.00;4928689;28;45271;-86
2022/08/19 11:50:24;;;;;;;;;2.50;2.00;;;;;24.72;71.40;100883.63;4928002;28;44866;-86
2022/08/19 11:53:17;;;;;;;;;2.00;1.75;;;;;24.88;71.56;100911.06;4929422;28;45431;-86
2022/08/19 11:55:44;;;;;;;;;1.75;1.75;;;;;24.79;71.74;100901.47;4978489;28;46073;-87
2022/08/19 11:58:14;;;;;;;;;1.50;1.50;;;;;24.77;71.44;100891.63;4991957;28;45480;-88
2022/08/19 12:03:15;;;;;;;;;1.00;1.00;;;;;24.80;71.19;100900.50;3910513;26;46120;-85
2022/08/19 12:05:42;;;;;;;;;2.00;2.00;;;;;25.00;71.35;100934.16;5075054;28;45284;-85
2022/08/19 12:11:11;;;;;;;;;1.25;1.25;;;;;24.72;71.95;100891.78;4975014;28;45275;-85
2022/08/19 12:24:20;;;;;;;;;1.00;1.00;;;;;24.88;70.96;100895.63;4863095;29;44800;-87
2022/08/19 12:41:25;;;;;;;;;;;;;;;;;;;;;
2022/08/19 12:44:39;;;;;;;;;1.00;1.00;;;;;25.06;70.28;100918.44;5050563;28;71384;-85
2022/08/19 12:47:08;;;;;;;;;3.00;3.00;;;;;24.94;70.63;100906.28;5049679;28;45390;-85
2022/08/19 12:49:36;;;;;;;;;1.00;1.00;;;;;24.87;71.63;100904.75;5053431;28;45415;-86
2022/08/19 12:52:15;;;;;;;;;1.25;1.25;;;;;24.89;71.83;100904.69;5056445;28;46758;-85
2022/08/19 12:54:41;;;;;;;;;1.75;1.75;;;;;24.92;71.91;100899.09;5054729;28;45620;-86
2022/08/19 12:57:12;;;;;;;;;2.00;2.00;;;;;25.18;71.55;100911.56;5073481;28;45592;-84
2022/08/19 12:59:43;;;;;;;;;2.25;2.25;;;;;25.07;71.20;100862.19;5062598;28;44937;-86
2022/08/19 13:02:46;;;;;;;;;;;;;;;;;;;;;
2022/08/19 13:05:39;;;;;;;;;1.00;1.00;;;;;25.57;69.05;100902.59;5049300;28;71528;-85
2022/08/19 13:08:05;;;;;;;;;1.00;0.75;;;;;25.52;69.38;100861.09;5005886;28;45381;-85
2022/08/19 13:10:34;;;;;;;;;1.50;1.50;;;;;25.77;68.94;100868.09;5035056;28;44921;-85
2022/08/19 13:13:40;;;;;;;;;2.00;2.00;;;;;26.06;67.65;100889.44;5034456;28;48166;-85
2022/08/19 13:16:17;;;;;;;;;2.00;2.00;;;;;26.06;67.43;100862.19;5032643;28;44857;-87
2022/08/19 13:18:50;;;;;;;;;0.75;0.75;;;;;26.37;66.41;100882.47;5029294;28;45289;-85
2022/08/19 13:21:22;;;;;;;;;1.75;1.75;;;;;26.30;65.02;100851.03;5066731;28;45246;-87